Time;durP1;ratioP1;P1;durP2;ratioP2;P2;SDS_P1;SDS_P2;PMS_P1;PMS_P2;Temp;Humidity;BMP_temperature;BMP_pressure;BME280_temperature;BME280_humidity;BME280_pressure;Samples;Min_cycle;Max_cycle;Signal;HPM_P1;HPM_P2
2021/10/22 00:00:39;;;;;;;10.90;4.32;;;14.10;13.20;;;;;;5032261;28;20543;-87
2021/10/22 00:03:05;;;;;;;11.77;4.85;;;14.10;14.00;;;;;;5032368;28;20029;-87
2021/10/22 00:05:33;;;;;;;9.15;4.32;;;14.10;13.60;;;;;;5015702;28;20065;-86
2021/10/22 00:07:59;;;;;;;12.10;4.40;;;14.10;13.60;;;;;;5033121;28;20406;-86
2021/10/22 00:10:25;;;;;;;10.63;5.00;;;14.30;14.80;;;;;;5033134;28;20025;-86
2021/10/22 00:12:51;;;;;;;11.57;4.90;;;14.10;12.20;;;;;;5032101;28;20455;-86
2021/10/22 00:15:17;;;;;;;11.40;4.50;;;14.10;13.80;;;;;;5014780;28;20029;-85
2021/10/22 00:17:44;;;;;;;9.27;5.00;;;14.10;12.50;;;;;;5032167;28;20041;-86
2021/10/22 00:20:10;;;;;;;11.88;4.40;;;14.00;15.90;;;;;;5016612;28;20029;-87
2021/10/22 00:22:37;;;;;;;9.90;4.20;;;14.00;16.00;;;;;;5027751;28;20159;-86
2021/10/22 00:25:04;;;;;;;9.30;4.38;;;14.00;15.90;;;;;;5034555;28;20041;-86
2021/10/22 00:27:30;;;;;;;9.77;4.53;;;13.80;16.20;;;;;;5031979;28;20033;-86
2021/10/22 00:29:55;;;;;;;8.98;4.65;;;14.00;16.30;;;;;;5033752;28;20026;-88
2021/10/22 00:32:21;;;;;;;9.70;4.75;;;13.80;11.30;;;;;;5031988;28;20036;-86
2021/10/22 00:34:47;;;;;;;8.75;4.60;;;13.80;14.80;;;;;;5030979;28;20029;-86
2021/10/22 00:37:12;;;;;;;8.90;4.30;;;13.70;16.50;;;;;;5030150;28;20053;-86
2021/10/22 00:39:38;;;;;;;9.35;4.70;;;13.60;24.20;;;;;;5031745;28;20120;-87
2021/10/22 00:42:07;;;;;;;8.13;4.30;;;13.50;17.10;;;;;;5010877;28;20048;-86
2021/10/22 00:44:33;;;;;;;11.80;5.07;;;13.50;25.70;;;;;;5036020;28;20049;-86
2021/10/22 00:46:59;;;;;;;10.68;4.40;;;13.50;17.70;;;;;;5036132;28;20119;-86
2021/10/22 00:49:24;;;;;;;13.40;4.80;;;13.50;18.00;;;;;;5034590;28;20029;-87
2021/10/22 00:51:50;;;;;;;9.90;4.45;;;13.50;16.90;;;;;;5035804;28;20026;-86
2021/10/22 00:54:17;;;;;;;9.30;4.97;;;13.70;17.70;;;;;;5034762;28;20479;-86
2021/10/22 00:56:42;;;;;;;7.95;4.20;;;13.50;17.30;;;;;;5037089;28;20513;-86
2021/10/22 00:59:09;;;;;;;11.88;5.07;;;13.60;17.10;;;;;;5002223;28;20033;-86
2021/10/22 01:01:42;;;;;;;11.10;5.10;;;13.50;18.30;;;;;;5035358;28;20083;-87
2021/10/22 01:04:08;;;;;;;7.78;4.07;;;13.60;18.10;;;;;;5036246;28;20038;-86
2021/10/22 01:06:38;;;;;;;9.35;4.28;;;13.70;16.40;;;;;;5037906;28;20021;-86
2021/10/22 01:09:06;;;;;;;7.13;4.07;;;13.70;18.10;;;;;;5035499;28;20033;-86
2021/10/22 01:11:33;;;;;;;10.57;4.75;;;13.70;17.60;;;;;;5035358;28;20033;-86
2021/10/22 01:14:01;;;;;;;9.05;4.10;;;13.70;18.30;;;;;;5035457;28;20029;-86
2021/10/22 01:16:27;;;;;;;14.40;5.30;;;13.70;18.70;;;;;;5034967;28;20030;-86
2021/10/22 01:18:52;;;;;;;8.18;4.47;;;13.70;15.60;;;;;;5034837;28;20030;-86
2021/10/22 01:21:18;;;;;;;10.48;4.07;;;13.80;18.00;;;;;;5035464;28;20057;-86
2021/10/22 01:23:43;;;;;;;8.65;4.60;;;13.80;15.40;;;;;;5035175;28;20089;-86
2021/10/22 01:26:09;;;;;;;8.77;4.05;;;13.90;15.60;;;;;;5035243;28;20104;-86
2021/10/22 01:28:35;;;;;;;6.90;4.03;;;13.80;17.70;;;;;;5034878;28;20025;-86
2021/10/22 01:31:01;;;;;;;9.43;3.90;;;14.00;18.60;;;;;;5035163;28;20474;-86
2021/10/22 01:33:27;;;;;;;11.25;4.75;;;13.60;18.30;;;;;;5036194;28;20025;-86
2021/10/22 01:35:53;;;;;;;11.27;4.03;;;13.50;18.10;;;;;;5035084;28;20021;-86
2021/10/22 01:38:21;;;;;;;9.00;4.22;;;13.60;17.10;;;;;;5036967;28;20421;-86
2021/10/22 01:40:49;;;;;;;11.75;4.72;;;13.70;19.20;;;;;;5034908;28;20032;-86
2021/10/22 01:43:15;;;;;;;10.93;4.75;;;13.40;17.10;;;;;;5052937;28;20029;-86
2021/10/22 01:45:41;;;;;;;11.63;4.40;;;13.50;20.90;;;;;;5038616;28;20021;-86
2021/10/22 01:48:07;;;;;;;9.40;4.50;;;13.50;19.00;;;;;;5016471;28;20477;-87
2021/10/22 01:50:33;;;;;;;10.18;4.43;;;13.80;20.50;;;;;;5035111;28;20025;-86
2021/10/22 01:52:59;;;;;;;9.50;4.35;;;13.60;18.30;;;;;;5017092;28;20032;-85
2021/10/22 01:55:25;;;;;;;7.57;4.35;;;13.60;17.10;;;;;;5033904;28;20391;-86
2021/10/22 01:57:50;;;;;;;7.60;3.97;;;13.70;16.90;;;;;;5034736;28;20029;-86
2021/10/22 02:00:16;;;;;;;5.22;3.78;;;13.60;17.70;;;;;;5034525;28;20029;-85
2021/10/22 02:02:42;;;;;;;8.73;4.18;;;13.60;19.30;;;;;;5034561;28;20030;-86
2021/10/22 02:05:09;;;;;;;7.80;4.18;;;13.70;20.10;;;;;;5018747;28;20027;-87
2021/10/22 02:07:35;;;;;;;7.88;3.85;;;13.60;18.10;;;;;;5033758;28;20080;-86
2021/10/22 02:10:00;;;;;;;9.40;3.63;;;13.60;18.10;;;;;;5034748;28;20025;-86
2021/10/22 02:12:27;;;;;;;7.63;3.78;;;13.50;18.40;;;;;;5033702;28;20036;-86
2021/10/22 02:14:52;;;;;;;9.77;3.75;;;13.50;21.00;;;;;;5039906;28;20022;-86
2021/10/22 02:17:18;;;;;;;8.43;3.95;;;13.50;21.40;;;;;;5036858;28;20036;-86
2021/10/22 02:19:44;;;;;;;7.43;4.07;;;13.60;21.40;;;;;;5033734;28;20030;-86
2021/10/22 02:22:09;;;;;;;9.73;4.50;;;13.30;20.90;;;;;;5034343;28;20057;-86
2021/10/22 02:24:38;;;;;;;9.75;3.70;;;13.30;18.50;;;;;;5035561;28;20363;-86
2021/10/22 02:27:03;;;;;;;10.68;4.82;;;13.40;22.10;;;;;;5035355;28;20037;-86
2021/10/22 02:29:29;;;;;;;9.70;4.30;;;13.50;19.30;;;;;;5036269;28;20394;-85
2021/10/22 02:31:55;;;;;;;8.88;4.20;;;13.50;21.90;;;;;;5034524;28;20039;-86
2021/10/22 02:34:21;;;;;;;11.57;4.47;;;13.40;20.60;;;;;;5013474;28;20014;-86
2021/10/22 02:36:49;;;;;;;9.45;4.38;;;13.30;19.10;;;;;;5035495;28;20192;-85
2021/10/22 02:39:15;;;;;;;7.72;3.88;;;13.30;20.30;;;;;;5033726;28;20041;-86
2021/10/22 02:41:41;;;;;;;7.90;3.97;;;13.20;28.60;;;;;;5034207;28;20031;-86
2021/10/22 02:44:07;;;;;;;9.88;3.88;;;13.20;20.30;;;;;;5015611;28;20063;-86
2021/10/22 02:46:32;;;;;;;10.98;4.30;;;13.20;19.70;;;;;;5033128;28;20049;-86
2021/10/22 02:48:58;;;;;;;8.50;4.07;;;13.20;20.80;;;;;;5034631;28;20045;-86
2021/10/22 02:51:24;;;;;;;10.02;4.13;;;13.20;21.40;;;;;;5035148;28;20025;-85
2021/10/22 02:53:50;;;;;;;8.57;4.72;;;13.20;20.20;;;;;;5033577;28;20056;-86
2021/10/22 02:56:16;;;;;;;9.55;4.05;;;13.20;22.80;;;;;;5033685;28;20033;-85
2021/10/22 02:58:42;;;;;;;10.18;4.47;;;13.20;19.90;;;;;;5032098;28;20038;-85
2021/10/22 03:01:08;;;;;;;8.50;3.97;;;13.20;19.90;;;;;;5033543;28;20489;-86
2021/10/22 03:03:34;;;;;;;9.60;4.28;;;13.20;20.90;;;;;;5033384;28;20021;-86
2021/10/22 03:06:00;;;;;;;8.38;3.85;;;13.30;20.30;;;;;;5033137;28;20025;-86
2021/10/22 03:08:25;;;;;;;8.95;4.50;;;13.20;19.90;;;;;;5033191;28;20099;-86
2021/10/22 03:10:51;;;;;;;7.63;3.83;;;13.20;21.10;;;;;;5033022;28;20091;-85
2021/10/22 03:13:16;;;;;;;9.40;3.88;;;13.20;21.80;;;;;;5032586;28;20614;-85
2021/10/22 03:15:42;;;;;;;6.45;3.20;;;13.20;21.00;;;;;;5033403;28;20034;-86
2021/10/22 03:18:08;;;;;;;10.20;4.25;;;13.10;21.30;;;;;;5016383;28;20045;-85
2021/10/22 03:20:35;;;;;;;9.57;3.95;;;13.10;20.10;;;;;;5035251;28;20028;-86
2021/10/22 03:23:00;;;;;;;8.63;3.80;;;13.10;20.70;;;;;;5032914;28;20055;-86
2021/10/22 03:25:26;;;;;;;10.57;3.50;;;13.20;22.10;;;;;;5032607;28;20099;-85
2021/10/22 03:27:53;;;;;;;8.80;3.78;;;13.30;21.00;;;;;;5032555;28;20022;-86
2021/10/22 03:30:18;;;;;;;8.10;3.40;;;13.40;23.30;;;;;;5032141;28;20088;-86
2021/10/22 03:32:44;;;;;;;9.20;3.63;;;13.40;20.80;;;;;;5032671;28;20021;-85
2021/10/22 03:35:10;;;;;;;9.70;3.35;;;13.40;22.00;;;;;;5032760;28;20037;-85
2021/10/22 03:37:35;;;;;;;8.63;3.50;;;13.50;21.20;;;;;;5032076;28;20566;-86
2021/10/22 03:40:01;;;;;;;8.50;3.28;;;13.50;21.20;;;;;;5032653;28;20112;-86
2021/10/22 03:42:29;;;;;;;8.60;4.10;;;13.50;20.40;;;;;;5032110;28;20537;-85
2021/10/22 03:44:55;;;;;;;9.10;3.50;;;14.00;21.60;;;;;;5034237;28;20037;-86
2021/10/22 03:47:20;;;;;;;10.95;4.38;;;13.90;21.70;;;;;;5032850;28;20033;-86
2021/10/22 03:49:46;;;;;;;8.52;3.85;;;13.50;20.40;;;;;;5031592;28;20029;-86
2021/10/22 03:52:12;;;;;;;7.60;3.45;;;13.50;21.80;;;;;;5032953;28;20053;-86
2021/10/22 03:54:38;;;;;;;10.30;4.00;;;13.60;21.60;;;;;;5033047;28;20034;-85
2021/10/22 03:57:04;;;;;;;9.05;4.00;;;13.40;23.20;;;;;;5031842;28;20498;-86
2021/10/22 03:59:30;;;;;;;10.68;3.72;;;13.40;23.50;;;;;;5034224;28;20047;-86
2021/10/22 04:01:55;;;;;;;7.88;3.67;;;13.20;24.20;;;;;;5015672;28;20509;-85
2021/10/22 04:04:27;;;;;;;7.30;3.70;;;13.00;24.30;;;;;;5031420;28;20026;-86
2021/10/22 04:06:53;;;;;;;9.43;3.50;;;13.20;24.50;;;;;;5032182;28;20467;-86
2021/10/22 04:09:20;;;;;;;10.05;3.58;;;13.60;24.20;;;;;;5032581;28;20029;-86
2021/10/22 04:11:45;;;;;;;7.63;3.42;;;13.60;24.70;;;;;;5015618;28;20074;-85
2021/10/22 04:14:11;;;;;;;9.82;4.28;;;13.00;25.00;;;;;;5032631;28;20120;-86
2021/10/22 04:16:37;;;;;;;10.38;4.35;;;13.10;24.00;;;;;;5013822;28;20635;-85
2021/10/22 04:19:03;;;;;;;12.55;4.25;;;13.20;24.60;;;;;;5033568;28;20042;-86
2021/10/22 04:21:28;;;;;;;8.90;4.35;;;13.20;25.00;;;;;;5032079;28;20030;-87
2021/10/22 04:23:54;;;;;;;9.73;3.90;;;13.30;24.90;;;;;;5032069;28;20034;-86
2021/10/22 04:26:20;;;;;;;7.35;4.82;;;13.30;24.90;;;;;;5031823;28;20024;-86
2021/10/22 04:28:46;;;;;;;12.30;4.70;;;13.30;23.50;;;;;;5031134;28;20029;-86
2021/10/22 04:31:11;;;;;;;8.82;4.43;;;13.30;24.50;;;;;;5034857;28;20022;-86
2021/10/22 04:33:38;;;;;;;9.68;5.07;;;13.40;25.10;;;;;;5014546;28;20029;-86
2021/10/22 04:36:07;;;;;;;8.07;3.90;;;13.60;23.70;;;;;;5026556;28;20808;-86
2021/10/22 04:41:17;;;;;;;10.82;4.22;;;13.80;32.80;;;;;;5017000;28;20103;-86
2021/10/22 04:43:43;;;;;;;7.43;4.22;;;13.40;15.60;;;;;;5030907;28;20065;-85
2021/10/22 04:46:09;;;;;;;13.93;5.45;;;13.30;23.20;;;;;;5032987;28;20028;-86
2021/10/22 04:48:35;;;;;;;12.00;4.80;;;13.30;23.80;;;;;;5032704;28;20028;-86
2021/10/22 04:51:00;;;;;;;8.20;4.70;;;13.40;22.80;;;;;;5032272;28;20022;-86
2021/10/22 04:53:26;;;;;;;10.65;6.38;;;13.40;23.20;;;;;;5032171;28;20087;-86
2021/10/22 04:55:53;;;;;;;8.60;4.68;;;13.20;23.90;;;;;;5030556;28;20026;-86
2021/10/22 04:58:19;;;;;;;10.68;5.13;;;13.20;25.10;;;;;;5033007;28;20043;-86
2021/10/22 05:00:45;;;;;;;11.80;5.00;;;13.10;24.00;;;;;;5032168;28;20022;-86
2021/10/22 05:03:11;;;;;;;10.60;4.82;;;13.20;23.30;;;;;;5033404;28;20032;-86
2021/10/22 05:05:36;;;;;;;9.18;4.65;;;13.20;23.60;;;;;;5031835;28;20018;-86
2021/10/22 05:08:03;;;;;;;11.07;5.03;;;13.20;23.70;;;;;;5031770;28;20528;-86
2021/10/22 05:10:28;;;;;;;11.13;5.25;;;13.10;25.70;;;;;;5030839;28;20049;-86
2021/10/22 05:12:54;;;;;;;9.20;5.10;;;13.10;34.00;;;;;;5032198;28;20064;-86
2021/10/22 05:15:20;;;;;;;10.02;4.97;;;13.40;27.50;;;;;;5031423;28;20097;-86
2021/10/22 05:17:45;;;;;;;9.93;5.03;;;12.90;27.00;;;;;;5031240;28;20033;-86
2021/10/22 05:20:12;;;;;;;7.70;4.88;;;13.40;27.30;;;;;;5031606;28;20405;-86
2021/10/22 05:22:39;;;;;;;10.63;5.50;;;12.80;26.50;;;;;;4993843;28;20076;-86
2021/10/22 05:25:09;;;;;;;10.88;6.18;;;12.80;26.90;;;;;;5030748;28;20496;-86
2021/10/22 05:27:35;;;;;;;12.00;6.28;;;12.90;37.20;;;;;;5031949;28;20040;-86
2021/10/22 05:30:02;;;;;;;14.07;6.32;;;12.90;27.80;;;;;;5035076;28;20151;-85
2021/10/22 05:32:28;;;;;;;13.30;6.85;;;12.90;28.40;;;;;;5034740;28;20026;-86
2021/10/22 05:34:53;;;;;;;9.43;6.05;;;12.90;27.30;;;;;;5034745;28;20513;-86
2021/10/22 05:37:20;;;;;;;11.93;6.40;;;13.00;27.00;;;;;;5034124;28;20425;-86
2021/10/22 05:39:46;;;;;;;11.15;6.10;;;12.80;27.50;;;;;;5034889;28;20030;-85
2021/10/22 05:42:12;;;;;;;9.25;4.55;;;12.80;28.80;;;;;;5034685;28;20028;-85
2021/10/22 05:44:37;;;;;;;8.15;5.40;;;12.80;26.80;;;;;;5035852;28;20414;-86
2021/10/22 05:47:03;;;;;;;7.43;5.15;;;12.80;27.30;;;;;;5034721;28;20400;-85
2021/10/22 05:49:29;;;;;;;10.85;5.35;;;12.70;29.40;;;;;;5034182;28;20048;-86
2021/10/22 05:51:56;;;;;;;9.88;4.93;;;13.10;24.50;;;;;;5034085;28;20865;-86
2021/10/22 05:54:22;;;;;;;7.80;4.25;;;12.80;26.40;;;;;;5035358;28;20021;-86
2021/10/22 05:56:49;;;;;;;9.95;4.75;;;12.90;24.90;;;;;;5034731;28;20088;-85
2021/10/22 05:59:15;;;;;;;8.82;4.10;;;12.90;27.30;;;;;;5034485;28;20025;-86
2021/10/22 06:01:41;;;;;;;8.23;4.40;;;12.90;28.40;;;;;;5034015;28;20036;-86
2021/10/22 06:04:06;;;;;;;9.82;5.28;;;12.90;26.20;;;;;;5034849;28;20030;-86
2021/10/22 06:06:32;;;;;;;11.32;5.03;;;12.90;26.20;;;;;;5034841;28;20463;-85
2021/10/22 06:08:59;;;;;;;11.00;5.95;;;12.80;26.60;;;;;;5039858;28;20134;-86
2021/10/22 06:11:25;;;;;;;13.45;5.85;;;12.90;26.60;;;;;;5034552;28;20033;-85
2021/10/22 06:13:50;;;;;;;12.15;5.47;;;13.30;24.10;;;;;;5033481;28;20426;-86
2021/10/22 06:16:16;;;;;;;8.73;5.18;;;12.70;26.00;;;;;;5033395;28;20029;-85
2021/10/22 06:18:47;;;;;;;10.88;5.35;;;12.60;26.50;;;;;;5034278;28;20447;-86
2021/10/22 06:21:22;;;;;;;10.68;5.22;;;12.60;28.00;;;;;;5033993;28;20023;-87
2021/10/22 06:23:56;;;;;;;8.80;5.28;;;12.50;29.30;;;;;;5034366;28;20033;-86
2021/10/22 06:26:24;;;;;;;12.07;5.80;;;12.60;29.90;;;;;;5034053;28;20026;-91
2021/10/22 06:28:52;;;;;;;10.77;5.00;;;12.50;30.10;;;;;;5016012;28;20128;-86
2021/10/22 06:31:18;;;;;;;13.02;5.00;;;12.50;30.00;;;;;;5033745;28;20021;-85
2021/10/22 06:33:43;;;;;;;10.80;5.40;;;12.60;27.70;;;;;;5034501;28;20457;-86
2021/10/22 06:36:09;;;;;;;16.50;10.13;;;12.80;27.50;;;;;;5035107;28;20167;-86
2021/10/22 06:38:35;;;;;;;11.00;6.30;;;12.50;30.60;;;;;;5033547;28;20079;-86
2021/10/22 06:41:03;;;;;;;9.68;5.80;;;12.60;28.20;;;;;;5033850;28;20532;-86
2021/10/22 06:43:29;;;;;;;8.95;5.15;;;12.80;29.40;;;;;;5036035;28;20025;-87
2021/10/22 06:45:55;;;;;;;9.63;5.70;;;13.00;29.00;;;;;;5037947;28;20026;-88
2021/10/22 06:48:21;;;;;;;10.73;5.82;;;13.10;26.90;;;;;;5033620;28;20029;-87
2021/10/22 06:50:47;;;;;;;13.45;5.60;;;13.10;26.50;;;;;;5033341;28;20062;-88
2021/10/22 06:53:12;;;;;;;13.73;5.45;;;13.10;25.20;;;;;;5035314;28;20036;-87
2021/10/22 06:55:38;;;;;;;8.82;4.65;;;13.30;26.80;;;;;;5028808;28;20045;-87
2021/10/22 06:58:05;;;;;;;15.73;6.13;;;13.40;25.10;;;;;;5033426;28;20030;-86
2021/10/22 07:00:35;;;;;;;10.48;5.38;;;13.40;26.50;;;;;;5035047;28;20025;-86
2021/10/22 07:03:01;;;;;;;9.50;4.40;;;13.40;28.70;;;;;;5035911;28;20025;-86
2021/10/22 07:08:04;;;;;;;8.85;4.95;;;13.30;28.90;;;;;;5033025;28;20033;-86
2021/10/22 07:10:32;;;;;;;8.30;4.90;;;13.10;29.30;;;;;;5017773;28;20026;-88
2021/10/22 07:12:58;;;;;;;9.13;4.68;;;13.30;29.30;;;;;;5015441;28;20057;-85
2021/10/22 07:15:25;;;;;;;7.40;4.20;;;13.40;27.50;;;;;;5033192;28;20117;-86
2021/10/22 07:17:52;;;;;;;15.30;4.85;;;13.60;27.20;;;;;;5034686;28;20056;-86
2021/10/22 07:20:18;;;;;;;9.07;3.80;;;13.60;27.60;;;;;;5032616;28;20064;-86
2021/10/22 07:22:51;;;;;;;3.88;2.70;;;13.90;27.40;;;;;;5014413;28;20024;-86
2021/10/22 07:25:19;;;;;;;8.88;3.63;;;13.50;27.90;;;;;;5011464;28;20556;-88
2021/10/22 07:27:45;;;;;;;7.25;4.10;;;13.60;27.80;;;;;;5032399;28;20390;-87
2021/10/22 07:30:11;;;;;;;8.45;3.90;;;13.50;28.10;;;;;;5032532;28;20068;-87
2021/10/22 07:32:37;;;;;;;9.82;4.53;;;14.00;26.40;;;;;;5033042;28;20040;-87
2021/10/22 07:35:04;;;;;;;7.65;3.13;;;13.50;25.60;;;;;;5032662;28;20042;-91
2021/10/22 07:37:30;;;;;;;8.50;3.47;;;14.10;27.50;;;;;;5033020;28;20045;-93
2021/10/22 07:39:56;;;;;;;5.03;2.50;;;14.30;22.50;;;;;;5033844;28;20041;-93
2021/10/22 07:42:24;;;;;;;5.50;2.45;;;14.20;25.30;;;;;;5012730;28;20071;-93
2021/10/22 07:44:55;;;;;;;6.75;2.80;;;14.40;26.80;;;;;;5001855;28;20483;-93
2021/10/22 07:47:26;;;;;;;6.53;2.38;;;15.40;25.30;;;;;;5032714;28;20025;-93
2021/10/22 07:49:52;;;;;;;4.45;2.33;;;15.80;23.00;;;;;;5015016;28;20029;-93
2021/10/22 07:52:23;;;;;;;4.82;2.17;;;20.40;14.10;;;;;;5015283;28;20033;-92
2021/10/22 07:54:50;;;;;;;6.63;2.08;;;23.70;3.90;;;;;;5032806;28;20025;-87
2021/10/22 07:57:17;;;;;;;8.73;2.30;;;25.60;1.00;;;;;;5032877;28;20041;-90
2021/10/22 07:59:43;;;;;;;2.28;1.92;;;27.50;1.00;;;;;;5032638;28;20128;-90
2021/10/22 08:02:16;;;;;;;5.35;2.28;;;24.10;1.00;;;;;;5015164;28;20044;-90
2021/10/22 08:04:44;;;;;;;4.18;2.22;;;21.70;1.00;;;;;;5027866;28;20030;-90
2021/10/22 08:07:10;;;;;;;4.20;2.40;;;19.40;6.80;;;;;;5034337;28;20033;-91
2021/10/22 08:09:36;;;;;;;7.03;2.20;;;22.60;10.70;;;;;;5014848;28;20029;-91
2021/10/22 08:12:02;;;;;;;4.57;1.67;;;26.50;1.00;;;;;;5034465;28;20100;-91
2021/10/22 08:14:28;;;;;;;5.18;1.80;;;27.30;1.00;;;;;;5014788;28;20041;-91
2021/10/22 08:16:54;;;;;;;2.58;1.52;;;22.30;1.00;;;;;;5031797;28;20029;-90
2021/10/22 08:19:20;;;;;;;3.50;1.52;;;19.00;6.40;;;;;;5020332;28;20045;-90
2021/10/22 08:22:25;;;;;;;2.97;1.60;;;17.80;8.00;;;;;;5010712;28;20048;-91
2021/10/22 08:24:32;;;;;;;2.92;1.80;;;16.80;11.60;;;;;;5032585;28;20021;-91
2021/10/22 08:26:58;;;;;;;3.20;1.40;;;15.90;15.40;;;;;;5031941;28;20028;-90
2021/10/22 08:29:23;;;;;;;1.92;1.67;;;15.60;15.40;;;;;;5032424;28;20037;-90
2021/10/22 08:31:50;;;;;;;1.75;1.30;;;18.20;14.30;;;;;;5013766;28;20406;-90
2021/10/22 08:34:15;;;;;;;2.33;1.42;;;25.40;1.00;;;;;;5032548;28;20398;-91
2021/10/22 08:36:41;;;;;;;2.92;1.30;;;29.00;1.00;;;;;;5031637;28;20045;-91
2021/10/22 08:39:07;;;;;;;3.00;1.60;;;28.60;1.00;;;;;;5031883;28;20048;-90
2021/10/22 08:41:34;;;;;;;2.28;1.40;;;23.10;1.00;;;;;;5032107;28;20148;-91
2021/10/22 08:44:03;;;;;;;2.70;1.58;;;19.00;2.90;;;;;;5014258;28;20041;-90
2021/10/22 08:46:31;;;;;;;3.15;1.45;;;18.80;4.40;;;;;;5051431;28;20100;-90
2021/10/22 08:48:57;;;;;;;3.30;1.48;;;20.30;1.00;;;;;;5033953;28;20111;-91
2021/10/22 08:51:23;;;;;;;3.80;1.50;;;20.80;1.00;;;;;;5031875;28;20084;-91
2021/10/22 08:53:48;;;;;;;1.90;1.40;;;20.30;1.00;;;;;;5010052;28;20473;-91
2021/10/22 08:56:16;;;;;;;3.35;1.73;;;25.00;1.00;;;;;;5015974;28;20033;-88
2021/10/22 08:58:42;;;;;;;5.85;1.50;;;28.90;1.00;;;;;;5031865;28;20399;-90
2021/10/22 09:01:08;;;;;;;1.73;1.38;;;29.90;1.00;;;;;;5035233;28;20029;-93
2021/10/22 09:03:38;;;;;;;1.98;1.10;;;31.60;1.00;;;;;;5033852;28;20040;-93
2021/10/22 09:06:09;;;;;;;2.47;1.20;;;33.70;1.00;;;;;;5043868;28;20106;-90
2021/10/22 09:08:37;;;;;;;2.55;1.30;;;35.60;1.00;;;;;;5034714;28;20026;-96
2021/10/22 09:11:05;;;;;;;1.90;1.13;;;36.00;1.00;;;;;;5023041;28;20083;-91
2021/10/22 09:13:36;;;;;;;1.35;1.10;;;34.40;1.00;;;;;;5041428;28;20045;-90
2021/10/22 09:16:24;;;;;;;4.35;2.67;;;33.50;1.00;;;;;;5026637;28;20029;-92
2021/10/22 09:18:52;;;;;;;3.45;2.58;;;34.40;1.00;;;;;;5020871;28;20043;-90
2021/10/22 09:21:29;;;;;;;2.50;2.30;;;34.90;1.00;;;;;;5036086;28;20017;-90
2021/10/22 09:24:26;;;;;;;1.60;1.50;;;33.90;1.00;;;;;;5018395;28;20088;-93
2021/10/22 09:26:55;;;;;;;2.28;1.60;;;35.20;1.00;;;;;;5015232;28;20040;-91
2021/10/22 09:29:23;;;;;;;1.75;1.25;;;33.60;1.00;;;;;;5038464;28;20017;-91
2021/10/22 09:31:50;;;;;;;2.83;1.23;;;33.40;1.00;;;;;;5055849;28;20028;-94
2021/10/22 09:34:35;;;;;;;3.00;1.42;;;32.70;1.00;;;;;;5028260;28;20025;-96
2021/10/22 09:37:03;;;;;;;1.33;0.98;;;33.00;1.00;;;;;;5039903;28;20053;-93
2021/10/22 09:39:33;;;;;;;1.40;1.00;;;34.60;1.00;;;;;;5036317;28;20045;-93
2021/10/22 09:42:01;;;;;;;1.30;1.00;;;33.50;1.00;;;;;;5044914;28;20029;-92
2021/10/22 09:44:37;;;;;;;1.63;1.15;;;32.80;1.00;;;;;;5052125;28;20020;-94
2021/10/22 09:47:05;;;;;;;2.55;1.20;;;32.90;1.00;;;;;;5036406;28;20025;-93
2021/10/22 09:49:35;;;;;;;1.13;1.02;;;33.90;1.00;;;;;;5036233;28;20026;-95
2021/10/22 09:52:03;;;;;;;2.05;1.40;;;34.20;1.00;;;;;;5041710;28;20033;-96
2021/10/22 09:54:30;;;;;;;1.55;1.15;;;32.60;1.00;;;;;;5056788;28;20026;-96
2021/10/22 09:56:58;;;;;;;1.50;1.30;;;33.00;1.00;;;;;;5031197;28;20030;-90
2021/10/22 09:59:27;;;;;;;1.52;1.40;;;34.00;1.00;;;;;;5035979;28;20038;-96
2021/10/22 10:01:56;;;;;;;2.58;1.50;;;34.40;1.00;;;;;;5019210;28;20082;-96
2021/10/22 10:04:26;;;;;;;1.67;1.30;;;36.40;1.00;;;;;;5038631;28;20055;-96
2021/10/22 10:06:53;;;;;;;1.50;1.40;;;35.90;1.00;;;;;;5038901;28;20474;-96
2021/10/22 10:09:19;;;;;;;1.40;1.30;;;29.40;1.00;;;;;;5018669;28;20030;-95
2021/10/22 10:11:46;;;;;;;2.33;1.30;;;25.40;1.00;;;;;;5037079;28;20413;-95
2021/10/22 10:14:14;;;;;;;3.95;1.30;;;22.50;1.00;;;;;;5019493;28;20089;-89
2021/10/22 10:16:40;;;;;;;2.15;1.30;;;26.00;1.00;;;;;;5031018;28;20055;-88
2021/10/22 10:19:21;;;;;;;1.27;1.08;;;31.00;1.00;;;;;;5034521;28;20488;-88
2021/10/22 10:22:03;;;;;;;1.52;0.90;;;29.40;1.00;;;;;;5037095;28;20076;-91
2021/10/22 10:25:01;;;;;;;2.08;1.20;;;33.20;1.00;;;;;;5018605;28;20026;-91
2021/10/22 10:27:26;;;;;;;1.40;1.15;;;31.70;1.00;;;;;;5035070;28;20025;-90
2021/10/22 10:29:59;;;;;;;1.30;0.90;;;33.20;1.00;;;;;;5037022;28;20088;-90
2021/10/22 10:32:31;;;;;;;3.08;1.00;;;35.20;1.00;;;;;;5037432;28;20057;-88
2021/10/22 10:34:58;;;;;;;1.58;1.05;;;31.20;1.00;;;;;;5037085;28;20104;-92
2021/10/22 10:37:28;;;;;;;2.00;1.10;;;32.70;1.00;;;;;;5016199;28;20085;-88
2021/10/22 10:39:56;;;;;;;2.38;1.40;;;31.20;1.00;;;;;;5034621;28;20061;-93
2021/10/22 10:42:45;;;;;;;1.80;1.30;;;31.70;1.00;;;;;;5034475;28;20040;-93
2021/10/22 10:45:26;;;;;;;2.00;1.38;;;28.80;1.00;;;;;;5019767;28;20033;-96
2021/10/22 10:47:56;;;;;;;1.50;1.40;;;24.50;1.00;;;;;;5037561;28;20079;-94
2021/10/22 10:50:37;;;;;;;2.88;1.52;;;29.70;1.00;;;;;;5036278;28;20025;-93
2021/10/22 10:53:04;;;;;;;1.85;1.35;;;31.30;1.00;;;;;;5035529;28;20041;-91
2021/10/22 10:55:41;;;;;;;3.63;1.13;;;31.40;1.00;;;;;;5017104;28;20024;-92
2021/10/22 10:58:07;;;;;;;2.65;1.20;;;28.90;1.00;;;;;;5034498;28;20037;-91
2021/10/22 11:05:53;;;;;;;4.05;1.20;;;34.20;1.00;;;;;;5328076;22;20049;-85
2021/10/22 11:08:20;;;;;;;2.92;1.45;;;34.90;1.00;;;;;;5032420;28;20393;-84
2021/10/22 11:11:10;;;;;;;1.98;1.20;;;35.30;1.00;;;;;;5036031;28;20126;-86
2021/10/22 11:13:54;;;;;;;2.67;1.80;;;34.80;1.00;;;;;;5036148;28;20382;-83
2021/10/22 11:16:24;;;;;;;2.72;1.60;;;28.20;1.00;;;;;;5036780;28;20292;-81
2021/10/22 11:19:00;;;;;;;4.40;1.33;;;29.20;1.00;;;;;;5036286;28;20033;-81
2021/10/22 11:21:28;;;;;;;2.95;1.33;;;34.40;1.00;;;;;;5034769;28;20339;-82
2021/10/22 11:23:55;;;;;;;2.00;1.25;;;34.50;1.00;;;;;;5032604;28;20034;-82
2021/10/22 11:26:21;;;;;;;3.00;1.38;;;32.30;1.00;;;;;;5036085;28;20021;-79
2021/10/22 11:29:01;;;;;;;3.50;1.55;;;34.00;1.00;;;;;;5035937;28;20418;-83
2021/10/22 11:31:48;;;;;;;1.45;1.30;;;34.10;1.00;;;;;;5035898;28;20026;-81
2021/10/22 11:34:23;;;;;;;1.63;1.20;;;30.70;1.00;;;;;;5019409;28;20033;-82
2021/10/22 11:37:05;;;;;;;1.83;1.20;;;28.70;1.00;;;;;;5035209;28;20078;-81
2021/10/22 11:39:46;;;;;;;3.35;1.50;;;28.90;1.00;;;;;;5019666;28;20568;-81
2021/10/22 11:42:16;;;;;;;1.98;1.33;;;25.10;1.00;;;;;;5019056;28;20064;-81
2021/10/22 11:44:47;;;;;;;2.00;1.60;;;29.20;1.00;;;;;;5033802;28;20029;-81
2021/10/22 11:47:13;;;;;;;2.55;1.45;;;30.30;1.00;;;;;;5034920;28;20088;-81
2021/10/22 11:49:39;;;;;;;1.83;1.25;;;30.00;1.00;;;;;;5019199;28;20037;-81
2021/10/22 11:52:08;;;;;;;2.08;1.20;;;27.80;1.00;;;;;;5035462;28;20215;-81
2021/10/22 11:54:42;;;;;;;1.52;1.20;;;26.70;1.00;;;;;;5035439;28;20544;-81
2021/10/22 11:57:12;;;;;;;1.20;1.10;;;26.60;1.00;;;;;;5032004;28;20025;-81
2021/10/22 11:59:44;;;;;;;2.50;1.08;;;30.80;1.00;;;;;;5034216;28;20069;-82
2021/10/22 12:02:12;;;;;;;2.45;1.27;;;29.60;1.00;;;;;;5034261;28;20025;-81
2021/10/22 12:04:38;;;;;;;2.72;1.10;;;25.70;1.00;;;;;;5035125;28;20064;-81
2021/10/22 12:07:07;;;;;;;1.88;1.23;;;29.20;1.00;;;;;;5035156;28;20510;-81
2021/10/22 12:09:41;;;;;;;3.40;1.10;;;30.80;1.00;;;;;;5035622;28;20497;-84
2021/10/22 12:12:13;;;;;;;1.52;1.40;;;27.20;1.00;;;;;;5017109;28;20048;-84
2021/10/22 12:14:47;;;;;;;3.15;1.30;;;26.50;1.00;;;;;;5033882;28;20026;-84
2021/10/22 12:17:16;;;;;;;3.08;1.00;;;27.90;1.00;;;;;;5034374;28;20539;-84
2021/10/22 12:19:44;;;;;;;1.63;1.27;;;27.40;1.00;;;;;;5018499;28;20080;-84
2021/10/22 12:22:10;;;;;;;2.15;1.13;;;29.00;1.00;;;;;;5035452;28;20025;-84
2021/10/22 12:24:56;;;;;;;1.98;1.15;;;24.30;1.00;;;;;;5035038;28;20055;-83
2021/10/22 12:27:33;;;;;;;2.45;1.20;;;25.10;1.00;;;;;;5034023;28;20512;-83
2021/10/22 12:30:05;;;;;;;2.10;1.20;;;29.90;1.00;;;;;;5015658;28;20033;-84
2021/10/22 12:32:40;;;;;;;1.92;1.20;;;28.50;1.00;;;;;;5043893;28;20078;-83
2021/10/22 12:35:31;;;;;;;1.50;1.10;;;26.90;1.00;;;;;;5035488;28;20037;-84
2021/10/22 12:38:05;;;;;;;2.97;1.23;;;27.40;1.00;;;;;;5040007;28;20075;-84
2021/10/22 12:40:48;;;;;;;2.80;1.15;;;29.40;1.00;;;;;;5041293;28;20087;-84
2021/10/22 12:43:25;;;;;;;5.05;1.60;;;30.70;1.00;;;;;;5039176;28;20042;-84
2021/10/22 12:45:51;;;;;;;2.17;1.40;;;29.90;1.00;;;;;;5039033;28;20071;-84
2021/10/22 12:48:19;;;;;;;2.40;1.10;;;30.10;1.00;;;;;;5020002;28;20052;-84
2021/10/22 12:50:45;;;;;;;2.47;1.10;;;28.90;1.00;;;;;;5037387;28;20087;-84
2021/10/22 12:53:15;;;;;;;2.83;1.30;;;28.40;1.00;;;;;;5021928;28;20029;-83
2021/10/22 12:55:43;;;;;;;3.03;1.20;;;28.50;1.00;;;;;;5038797;28;20120;-84
2021/10/22 12:58:16;;;;;;;2.20;1.10;;;29.50;1.00;;;;;;5038686;28;20091;-84
2021/10/22 13:00:43;;;;;;;1.33;0.95;;;29.80;1.00;;;;;;5039407;28;20045;-84
2021/10/22 13:03:09;;;;;;;2.13;1.15;;;30.90;1.00;;;;;;5035781;28;20056;-85